sensor_id;sensor_type;location;lat;lon;timestamp;P1;durP1;ratioP1;P2;durP2;ratioP2
12024;SDS011;6073;53.230;10.444;2023-04-03T00:01:27;5.15;;;2.20;;
12024;SDS011;6073;53.230;10.444;2023-04-03T00:03:53;3.90;;;2.55;;
12024;SDS011;6073;53.230;10.444;2023-04-03T00:06:19;8.13;;;2.42;;
12024;SDS011;6073;53.230;10.444;2023-04-03T00:08:45;5.53;;;1.70;;
12024;SDS011;6073;53.230;10.444;2023-04-03T00:11:11;6.57;;;2.57;;
12024;SDS011;6073;53.230;10.444;2023-04-03T00:13:38;7.97;;;2.00;;
12024;SDS011;6073;53.230;10.444;2023-04-03T00:16:04;2.73;;;1.93;;
12024;SDS011;6073;53.230;10.444;2023-04-03T00:18:30;5.53;;;2.50;;
12024;SDS011;6073;53.230;10.444;2023-04-03T00:20:56;5.87;;;2.37;;
12024;SDS011;6073;53.230;10.444;2023-04-03T00:23:21;5.47;;;2.13;;
12024;SDS011;6073;53.230;10.444;2023-04-03T00:25:48;4.77;;;1.97;;
12024;SDS011;6073;53.230;10.444;2023-04-03T00:28:15;3.80;;;2.10;;
12024;SDS011;6073;53.230;10.444;2023-04-03T00:30:40;4.83;;;1.90;;
12024;SDS011;6073;53.230;10.444;2023-04-03T00:33:06;6.27;;;2.57;;
12024;SDS011;6073;53.230;10.444;2023-04-03T00:35:33;2.88;;;1.73;;
12024;SDS011;6073;53.230;10.444;2023-04-03T00:38:00;3.90;;;2.20;;
12024;SDS011;6073;53.230;10.444;2023-04-03T00:40:26;5.87;;;1.90;;
12024;SDS011;6073;53.230;10.444;2023-04-03T00:42:54;8.60;;;2.00;;
12024;SDS011;6073;53.230;10.444;2023-04-03T00:48:07;4.50;;;2.10;;
12024;SDS011;6073;53.230;10.444;2023-04-03T00:50:39;5.30;;;2.40;;
12024;SDS011;6073;53.230;10.444;2023-04-03T00:53:06;3.47;;;1.73;;
12024;SDS011;6073;53.230;10.444;2023-04-03T00:55:36;3.50;;;2.00;;
12024;SDS011;6073;53.230;10.444;2023-04-03T00:58:03;3.93;;;2.40;;
12024;SDS011;6073;53.230;10.444;2023-04-03T01:00:31;3.90;;;2.37;;
12024;SDS011;6073;53.230;10.444;2023-04-03T01:02:57;4.65;;;2.22;;
12024;SDS011;6073;53.230;10.444;2023-04-03T01:05:23;7.10;;;2.17;;
12024;SDS011;6073;53.230;10.444;2023-04-03T01:07:49;4.90;;;2.00;;
12024;SDS011;6073;53.230;10.444;2023-04-03T01:10:17;3.17;;;2.30;;
12024;SDS011;6073;53.230;10.444;2023-04-03T01:12:45;6.63;;;2.27;;
12024;SDS011;6073;53.230;10.444;2023-04-03T01:25:43;5.70;;;2.33;;
12024;SDS011;6073;53.230;10.444;2023-04-03T01:28:12;4.57;;;2.40;;
12024;SDS011;6073;53.230;10.444;2023-04-03T01:31:16;4.70;;;1.87;;
12024;SDS011;6073;53.230;10.444;2023-04-03T01:33:35;6.57;;;3.03;;
12024;SDS011;6073;53.230;10.444;2023-04-03T01:36:02;7.03;;;2.30;;
12024;SDS011;6073;53.230;10.444;2023-04-03T01:38:28;6.85;;;2.80;;
12024;SDS011;6073;53.230;10.444;2023-04-03T01:40:53;4.60;;;2.30;;
12024;SDS011;6073;53.230;10.444;2023-04-03T01:43:19;4.73;;;2.13;;
12024;SDS011;6073;53.230;10.444;2023-04-03T01:45:45;5.65;;;2.50;;
12024;SDS011;6073;53.230;10.444;2023-04-03T01:48:11;4.90;;;2.27;;
12024;SDS011;6073;53.230;10.444;2023-04-03T01:50:38;4.43;;;2.33;;
12024;SDS011;6073;53.230;10.444;2023-04-03T01:53:04;7.07;;;2.50;;
12024;SDS011;6073;53.230;10.444;2023-04-03T01:55:29;5.35;;;2.15;;
12024;SDS011;6073;53.230;10.444;2023-04-03T01:57:55;5.27;;;2.50;;
12024;SDS011;6073;53.230;10.444;2023-04-03T02:00:21;8.32;;;2.95;;
12024;SDS011;6073;53.230;10.444;2023-04-03T02:02:46;6.40;;;2.37;;
12024;SDS011;6073;53.230;10.444;2023-04-03T02:05:12;4.83;;;2.37;;
12024;SDS011;6073;53.230;10.444;2023-04-03T02:07:37;2.83;;;2.30;;
12024;SDS011;6073;53.230;10.444;2023-04-03T02:10:03;3.50;;;2.47;;
12024;SDS011;6073;53.230;10.444;2023-04-03T02:12:29;6.17;;;2.30;;
12024;SDS011;6073;53.230;10.444;2023-04-03T02:14:54;5.70;;;2.77;;
12024;SDS011;6073;53.230;10.444;2023-04-03T02:17:20;4.90;;;2.30;;
12024;SDS011;6073;53.230;10.444;2023-04-03T02:19:45;3.90;;;2.10;;
12024;SDS011;6073;53.230;10.444;2023-04-03T02:22:11;4.47;;;2.00;;
12024;SDS011;6073;53.230;10.444;2023-04-03T02:24:36;5.47;;;2.50;;
12024;SDS011;6073;53.230;10.444;2023-04-03T02:27:04;4.63;;;2.30;;
12024;SDS011;6073;53.230;10.444;2023-04-03T02:29:29;7.30;;;2.50;;
12024;SDS011;6073;53.230;10.444;2023-04-03T02:31:55;7.77;;;3.00;;
12024;SDS011;6073;53.230;10.444;2023-04-03T02:34:21;7.40;;;2.73;;
12024;SDS011;6073;53.230;10.444;2023-04-03T02:36:46;5.00;;;2.50;;
12024;SDS011;6073;53.230;10.444;2023-04-03T02:39:12;3.40;;;2.23;;
12024;SDS011;6073;53.230;10.444;2023-04-03T02:41:37;5.43;;;2.50;;
12024;SDS011;6073;53.230;10.444;2023-04-03T02:44:03;4.80;;;2.13;;
12024;SDS011;6073;53.230;10.444;2023-04-03T02:46:31;7.23;;;3.00;;
12024;SDS011;6073;53.230;10.444;2023-04-03T02:48:57;5.43;;;2.57;;
12024;SDS011;6073;53.230;10.444;2023-04-03T02:51:23;9.40;;;2.47;;
12024;SDS011;6073;53.230;10.444;2023-04-03T02:53:49;4.80;;;2.37;;
12024;SDS011;6073;53.230;10.444;2023-04-03T02:56:15;9.83;;;3.00;;
12024;SDS011;6073;53.230;10.444;2023-04-03T02:58:42;7.37;;;2.60;;
12024;SDS011;6073;53.230;10.444;2023-04-03T03:01:07;6.23;;;2.60;;
12024;SDS011;6073;53.230;10.444;2023-04-03T03:03:33;4.63;;;2.50;;
12024;SDS011;6073;53.230;10.444;2023-04-03T03:06:02;4.50;;;2.90;;
12024;SDS011;6073;53.230;10.444;2023-04-03T03:08:32;7.33;;;2.60;;
12024;SDS011;6073;53.230;10.444;2023-04-03T03:10:58;4.20;;;2.60;;
12024;SDS011;6073;53.230;10.444;2023-04-03T03:13:24;7.27;;;2.80;;
12024;SDS011;6073;53.230;10.444;2023-04-03T03:15:50;4.83;;;2.53;;
12024;SDS011;6073;53.230;10.444;2023-04-03T03:18:16;6.93;;;3.10;;
12024;SDS011;6073;53.230;10.444;2023-04-03T03:20:42;5.57;;;2.90;;
12024;SDS011;6073;53.230;10.444;2023-04-03T03:23:08;7.40;;;2.87;;
12024;SDS011;6073;53.230;10.444;2023-04-03T03:25:33;4.53;;;2.90;;
12024;SDS011;6073;53.230;10.444;2023-04-03T03:28:03;6.40;;;3.00;;
12024;SDS011;6073;53.230;10.444;2023-04-03T03:30:28;4.10;;;2.80;;
12024;SDS011;6073;53.230;10.444;2023-04-03T03:32:54;6.83;;;2.67;;
12024;SDS011;6073;53.230;10.444;2023-04-03T03:35:19;4.90;;;2.97;;
12024;SDS011;6073;53.230;10.444;2023-04-03T03:37:45;5.17;;;2.33;;
12024;SDS011;6073;53.230;10.444;2023-04-03T03:40:10;7.70;;;3.07;;
12024;SDS011;6073;53.230;10.444;2023-04-03T03:42:38;5.90;;;2.93;;
12024;SDS011;6073;53.230;10.444;2023-04-03T03:45:04;7.03;;;2.80;;
12024;SDS011;6073;53.230;10.444;2023-04-03T03:47:30;5.40;;;2.60;;
12024;SDS011;6073;53.230;10.444;2023-04-03T03:49:55;9.97;;;3.00;;
12024;SDS011;6073;53.230;10.444;2023-04-03T03:52:21;5.20;;;2.30;;
12024;SDS011;6073;53.230;10.444;2023-04-03T03:54:46;5.50;;;2.77;;
12024;SDS011;6073;53.230;10.444;2023-04-03T03:57:12;11.20;;;3.33;;
12024;SDS011;6073;53.230;10.444;2023-04-03T03:59:38;6.23;;;2.70;;
12024;SDS011;6073;53.230;10.444;2023-04-03T04:02:05;6.93;;;3.07;;
12024;SDS011;6073;53.230;10.444;2023-04-03T04:04:31;7.17;;;2.57;;
12024;SDS011;6073;53.230;10.444;2023-04-03T04:06:56;5.83;;;2.80;;
12024;SDS011;6073;53.230;10.444;2023-04-03T04:09:22;5.70;;;3.10;;
12024;SDS011;6073;53.230;10.444;2023-04-03T04:11:47;6.43;;;2.70;;
12024;SDS011;6073;53.230;10.444;2023-04-03T04:14:13;4.33;;;2.53;;
12024;SDS011;6073;53.230;10.444;2023-04-03T04:16:38;4.67;;;2.73;;
12024;SDS011;6073;53.230;10.444;2023-04-03T04:19:04;7.77;;;2.87;;
12024;SDS011;6073;53.230;10.444;2023-04-03T04:21:30;6.17;;;2.73;;
12024;SDS011;6073;53.230;10.444;2023-04-03T04:23:55;6.47;;;3.10;;
12024;SDS011;6073;53.230;10.444;2023-04-03T04:26:21;4.97;;;2.53;;
12024;SDS011;6073;53.230;10.444;2023-04-03T04:28:46;4.67;;;2.37;;
12024;SDS011;6073;53.230;10.444;2023-04-03T04:31:12;6.40;;;2.73;;
12024;SDS011;6073;53.230;10.444;2023-04-03T04:33:37;5.50;;;2.90;;
12024;SDS011;6073;53.230;10.444;2023-04-03T04:36:03;4.50;;;2.90;;
12024;SDS011;6073;53.230;10.444;2023-04-03T04:38:28;5.20;;;3.03;;
12024;SDS011;6073;53.230;10.444;2023-04-03T04:40:54;6.13;;;2.47;;
12024;SDS011;6073;53.230;10.444;2023-04-03T04:43:20;4.53;;;2.40;;
12024;SDS011;6073;53.230;10.444;2023-04-03T04:45:45;5.73;;;2.70;;
12024;SDS011;6073;53.230;10.444;2023-04-03T04:48:11;4.40;;;3.13;;
12024;SDS011;6073;53.230;10.444;2023-04-03T04:50:36;5.23;;;2.67;;
12024;SDS011;6073;53.230;10.444;2023-04-03T04:53:02;4.17;;;2.63;;
12024;SDS011;6073;53.230;10.444;2023-04-03T04:55:29;4.77;;;2.73;;
12024;SDS011;6073;53.230;10.444;2023-04-03T04:57:54;6.30;;;2.57;;
12024;SDS011;6073;53.230;10.444;2023-04-03T05:00:20;6.33;;;2.53;;
12024;SDS011;6073;53.230;10.444;2023-04-03T05:02:46;4.50;;;2.30;;
12024;SDS011;6073;53.230;10.444;2023-04-03T05:05:11;5.50;;;2.47;;
12024;SDS011;6073;53.230;10.444;2023-04-03T05:07:37;5.40;;;2.70;;
12024;SDS011;6073;53.230;10.444;2023-04-03T05:10:03;6.20;;;2.47;;
12024;SDS011;6073;53.230;10.444;2023-04-03T05:12:29;5.20;;;2.60;;
12024;SDS011;6073;53.230;10.444;2023-04-03T05:14:54;3.80;;;2.73;;
12024;SDS011;6073;53.230;10.444;2023-04-03T05:17:20;9.97;;;2.53;;
12024;SDS011;6073;53.230;10.444;2023-04-03T05:19:45;4.50;;;2.80;;
12024;SDS011;6073;53.230;10.444;2023-04-03T05:22:11;6.43;;;3.30;;
12024;SDS011;6073;53.230;10.444;2023-04-03T05:24:36;4.10;;;2.50;;
12024;SDS011;6073;53.230;10.444;2023-04-03T05:27:02;5.43;;;2.70;;
12024;SDS011;6073;53.230;10.444;2023-04-03T05:29:28;6.20;;;2.70;;
12024;SDS011;6073;53.230;10.444;2023-04-03T05:31:54;5.60;;;2.57;;
12024;SDS011;6073;53.230;10.444;2023-04-03T05:34:20;7.53;;;2.80;;
12024;SDS011;6073;53.230;10.444;2023-04-03T05:36:45;6.23;;;2.90;;
12024;SDS011;6073;53.230;10.444;2023-04-03T05:39:11;4.37;;;2.63;;
12024;SDS011;6073;53.230;10.444;2023-04-03T05:41:36;5.17;;;3.03;;
12024;SDS011;6073;53.230;10.444;2023-04-03T05:44:02;5.20;;;2.83;;
12024;SDS011;6073;53.230;10.444;2023-04-03T05:46:27;4.73;;;2.53;;
12024;SDS011;6073;53.230;10.444;2023-04-03T05:48:53;5.18;;;2.95;;
12024;SDS011;6073;53.230;10.444;2023-04-03T05:51:20;6.68;;;2.97;;
12024;SDS011;6073;53.230;10.444;2023-04-03T05:53:48;9.20;;;2.78;;
12024;SDS011;6073;53.230;10.444;2023-04-03T05:56:19;4.60;;;2.60;;
12024;SDS011;6073;53.230;10.444;2023-04-03T05:58:45;5.03;;;2.58;;
12024;SDS011;6073;53.230;10.444;2023-04-03T06:01:11;5.65;;;2.60;;
12024;SDS011;6073;53.230;10.444;2023-04-03T06:03:36;6.60;;;2.67;;
12024;SDS011;6073;53.230;10.444;2023-04-03T06:06:03;6.60;;;2.83;;
12024;SDS011;6073;53.230;10.444;2023-04-03T06:08:29;6.55;;;2.42;;
12024;SDS011;6073;53.230;10.444;2023-04-03T06:10:55;6.75;;;2.80;;
12024;SDS011;6073;53.230;10.444;2023-04-03T06:13:21;5.15;;;2.25;;
12024;SDS011;6073;53.230;10.444;2023-04-03T06:15:46;4.30;;;2.20;;
12024;SDS011;6073;53.230;10.444;2023-04-03T06:18:12;5.57;;;2.53;;
12024;SDS011;6073;53.230;10.444;2023-04-03T06:20:38;4.45;;;2.38;;
12024;SDS011;6073;53.230;10.444;2023-04-03T06:23:03;5.47;;;2.28;;
12024;SDS011;6073;53.230;10.444;2023-04-03T06:25:29;6.03;;;2.35;;
12024;SDS011;6073;53.230;10.444;2023-04-03T06:27:56;4.55;;;2.35;;
12024;SDS011;6073;53.230;10.444;2023-04-03T06:30:22;3.95;;;2.10;;
12024;SDS011;6073;53.230;10.444;2023-04-03T06:32:47;3.25;;;2.33;;
12024;SDS011;6073;53.230;10.444;2023-04-03T06:35:13;2.33;;;2.08;;
12024;SDS011;6073;53.230;10.444;2023-04-03T06:37:38;3.67;;;2.40;;
12024;SDS011;6073;53.230;10.444;2023-04-03T06:40:04;3.03;;;2.08;;
12024;SDS011;6073;53.230;10.444;2023-04-03T06:42:30;5.15;;;2.05;;
12024;SDS011;6073;53.230;10.444;2023-04-03T06:44:56;4.57;;;2.05;;
12024;SDS011;6073;53.230;10.444;2023-04-03T06:47:21;3.78;;;2.13;;
12024;SDS011;6073;53.230;10.444;2023-04-03T06:49:47;3.40;;;2.28;;
12024;SDS011;6073;53.230;10.444;2023-04-03T06:52:13;5.07;;;2.22;;
12024;SDS011;6073;53.230;10.444;2023-04-03T06:54:39;3.25;;;1.80;;
12024;SDS011;6073;53.230;10.444;2023-04-03T06:57:05;3.85;;;1.88;;
12024;SDS011;6073;53.230;10.444;2023-04-03T06:59:31;4.88;;;2.30;;
12024;SDS011;6073;53.230;10.444;2023-04-03T07:01:57;4.38;;;2.03;;
12024;SDS011;6073;53.230;10.444;2023-04-03T07:04:24;5.50;;;1.77;;
12024;SDS011;6073;53.230;10.444;2023-04-03T07:06:50;4.10;;;1.80;;
12024;SDS011;6073;53.230;10.444;2023-04-03T07:09:15;3.25;;;1.60;;
12024;SDS011;6073;53.230;10.444;2023-04-03T07:11:41;4.30;;;1.92;;
12024;SDS011;6073;53.230;10.444;2023-04-03T07:14:07;4.18;;;2.05;;
12024;SDS011;6073;53.230;10.444;2023-04-03T07:16:33;3.88;;;1.70;;
12024;SDS011;6073;53.230;10.444;2023-04-03T07:18:59;2.95;;;1.58;;
12024;SDS011;6073;53.230;10.444;2023-04-03T07:21:26;2.72;;;1.90;;
12024;SDS011;6073;53.230;10.444;2023-04-03T07:23:52;3.83;;;1.80;;
12024;SDS011;6073;53.230;10.444;2023-04-03T07:26:18;3.92;;;1.73;;
12024;SDS011;6073;53.230;10.444;2023-04-03T07:28:45;4.40;;;1.83;;
12024;SDS011;6073;53.230;10.444;2023-04-03T07:31:13;3.75;;;1.70;;
12024;SDS011;6073;53.230;10.444;2023-04-03T07:33:40;3.13;;;1.45;;
12024;SDS011;6073;53.230;10.444;2023-04-03T07:36:06;2.80;;;1.40;;
12024;SDS011;6073;53.230;10.444;2023-04-03T07:38:33;2.55;;;1.80;;
12024;SDS011;6073;53.230;10.444;2023-04-03T07:41:00;3.35;;;1.60;;
12024;SDS011;6073;53.230;10.444;2023-04-03T07:43:25;4.72;;;1.60;;
12024;SDS011;6073;53.230;10.444;2023-04-03T07:45:51;2.65;;;1.70;;
12024;SDS011;6073;53.230;10.444;2023-04-03T07:48:23;2.90;;;1.58;;
12024;SDS011;6073;53.230;10.444;2023-04-03T07:50:49;3.53;;;1.77;;
12024;SDS011;6073;53.230;10.444;2023-04-03T07:53:16;2.63;;;1.70;;
12024;SDS011;6073;53.230;10.444;2023-04-03T07:55:42;2.53;;;1.52;;
12024;SDS011;6073;53.230;10.444;2023-04-03T07:58:12;2.53;;;1.38;;
12024;SDS011;6073;53.230;10.444;2023-04-03T08:00:40;3.45;;;1.40;;
12024;SDS011;6073;53.230;10.444;2023-04-03T08:03:06;1.90;;;1.30;;
12024;SDS011;6073;53.230;10.444;2023-04-03T08:05:40;4.47;;;1.73;;
12024;SDS011;6073;53.230;10.444;2023-04-03T08:08:06;3.45;;;1.33;;
12024;SDS011;6073;53.230;10.444;2023-04-03T08:10:33;2.85;;;1.60;;
12024;SDS011;6073;53.230;10.444;2023-04-03T08:12:59;3.58;;;1.50;;
12024;SDS011;6073;53.230;10.444;2023-04-03T08:15:25;3.00;;;1.73;;
12024;SDS011;6073;53.230;10.444;2023-04-03T08:17:51;4.30;;;2.45;;
12024;SDS011;6073;53.230;10.444;2023-04-03T08:20:17;2.53;;;1.55;;
12024;SDS011;6073;53.230;10.444;2023-04-03T08:22:43;3.72;;;1.50;;
12024;SDS011;6073;53.230;10.444;2023-04-03T08:25:09;1.83;;;1.17;;
12024;SDS011;6073;53.230;10.444;2023-04-03T08:27:34;1.95;;;1.30;;
12024;SDS011;6073;53.230;10.444;2023-04-03T08:30:00;3.58;;;1.60;;
12024;SDS011;6073;53.230;10.444;2023-04-03T08:32:26;2.03;;;1.40;;
12024;SDS011;6073;53.230;10.444;2023-04-03T08:34:52;3.22;;;1.60;;
12024;SDS011;6073;53.230;10.444;2023-04-03T08:37:18;2.22;;;1.02;;
12024;SDS011;6073;53.230;10.444;2023-04-03T08:39:44;1.77;;;1.20;;
12024;SDS011;6073;53.230;10.444;2023-04-03T08:45:15;4.97;;;1.65;;
12024;SDS011;6073;53.230;10.444;2023-04-03T08:47:45;2.35;;;1.30;;
12024;SDS011;6073;53.230;10.444;2023-04-03T08:50:17;4.43;;;1.40;;
12024;SDS011;6073;53.230;10.444;2023-04-03T08:52:50;1.70;;;1.10;;
12024;SDS011;6073;53.230;10.444;2023-04-03T08:55:25;2.47;;;1.17;;
12024;SDS011;6073;53.230;10.444;2023-04-03T08:58:03;2.72;;;1.25;;
12024;SDS011;6073;53.230;10.444;2023-04-03T09:00:40;2.17;;;1.20;;
12024;SDS011;6073;53.230;10.444;2023-04-03T09:03:15;1.88;;;1.20;;
12024;SDS011;6073;53.230;10.444;2023-04-03T09:08:18;1.52;;;1.13;;
12024;SDS011;6073;53.230;10.444;2023-04-03T09:11:06;2.67;;;1.60;;
12024;SDS011;6073;53.230;10.444;2023-04-03T09:16:20;3.45;;;1.20;;
12024;SDS011;6073;53.230;10.444;2023-04-03T09:19:15;2.45;;;1.30;;
12024;SDS011;6073;53.230;10.444;2023-04-03T09:21:50;1.60;;;1.20;;
12024;SDS011;6073;53.230;10.444;2023-04-03T09:24:16;2.33;;;1.42;;
12024;SDS011;6073;53.230;10.444;2023-04-03T09:29:19;2.88;;;1.33;;
12024;SDS011;6073;53.230;10.444;2023-04-03T09:31:47;2.83;;;1.15;;
12024;SDS011;6073;53.230;10.444;2023-04-03T09:34:22;2.70;;;1.17;;
12024;SDS011;6073;53.230;10.444;2023-04-03T09:36:58;3.15;;;1.15;;
12024;SDS011;6073;53.230;10.444;2023-04-03T09:39:31;2.70;;;1.17;;
12024;SDS011;6073;53.230;10.444;2023-04-03T09:42:05;1.88;;;1.00;;
12024;SDS011;6073;53.230;10.444;2023-04-03T09:44:52;2.28;;;1.30;;
12024;SDS011;6073;53.230;10.444;2023-04-03T09:52:38;2.10;;;1.30;;
12024;SDS011;6073;53.230;10.444;2023-04-03T09:55:23;1.55;;;0.95;;
12024;SDS011;6073;53.230;10.444;2023-04-03T09:58:01;1.92;;;1.00;;
12024;SDS011;6073;53.230;10.444;2023-04-03T10:00:36;1.95;;;1.10;;
12024;SDS011;6073;53.230;10.444;2023-04-03T10:03:03;1.85;;;1.20;;
12024;SDS011;6073;53.230;10.444;2023-04-03T10:05:37;3.05;;;1.40;;
12024;SDS011;6073;53.230;10.444;2023-04-03T10:10:38;2.13;;;1.30;;
12024;SDS011;6073;53.230;10.444;2023-04-03T10:13:06;2.47;;;1.33;;
12024;SDS011;6073;53.230;10.444;2023-04-03T10:15:56;2.47;;;1.20;;
12024;SDS011;6073;53.230;10.444;2023-04-03T10:21:27;1.75;;;1.00;;
12024;SDS011;6073;53.230;10.444;2023-04-03T10:24:15;2.03;;;0.82;;
12024;SDS011;6073;53.230;10.444;2023-04-03T10:29:40;1.20;;;0.77;;
12024;SDS011;6073;53.230;10.444;2023-04-03T10:38:08;3.58;;;1.25;;
12024;SDS011;6073;53.230;10.444;2023-04-03T10:40:57;3.17;;;1.30;;
12024;SDS011;6073;53.230;10.444;2023-04-03T10:43:41;2.72;;;1.40;;
12024;SDS011;6073;53.230;10.444;2023-04-03T10:46:32;3.40;;;1.42;;
12024;SDS011;6073;53.230;10.444;2023-04-03T10:52:02;4.22;;;1.25;;
12024;SDS011;6073;53.230;10.444;2023-04-03T10:54:40;2.30;;;1.08;;
12024;SDS011;6073;53.230;10.444;2023-04-03T10:57:14;1.90;;;0.80;;
12024;SDS011;6073;53.230;10.444;2023-04-03T10:59:47;2.75;;;1.10;;
12024;SDS011;6073;53.230;10.444;2023-04-03T11:02:27;2.85;;;1.23;;
12024;SDS011;6073;53.230;10.444;2023-04-03T11:05:18;2.13;;;1.52;;
12024;SDS011;6073;53.230;10.444;2023-04-03T11:07:54;1.17;;;0.95;;
12024;SDS011;6073;53.230;10.444;2023-04-03T11:10:28;2.15;;;1.02;;
12024;SDS011;6073;53.230;10.444;2023-04-03T11:13:13;1.65;;;1.10;;
12024;SDS011;6073;53.230;10.444;2023-04-03T11:15:50;1.23;;;0.80;;
12024;SDS011;6073;53.230;10.444;2023-04-03T11:18:21;1.58;;;1.13;;
12024;SDS011;6073;53.230;10.444;2023-04-03T11:21:19;2.47;;;1.08;;
12024;SDS011;6073;53.230;10.444;2023-04-03T11:23:48;1.45;;;1.08;;
12024;SDS011;6073;53.230;10.444;2023-04-03T11:26:19;2.38;;;1.23;;
12024;SDS011;6073;53.230;10.444;2023-04-03T11:28:53;2.42;;;1.08;;
12024;SDS011;6073;53.230;10.444;2023-04-03T11:37:22;2.40;;;1.25;;
12024;SDS011;6073;53.230;10.444;2023-04-03T11:40:02;2.22;;;1.15;;
12024;SDS011;6073;53.230;10.444;2023-04-03T11:42:47;2.90;;;1.40;;
12024;SDS011;6073;53.230;10.444;2023-04-03T11:45:17;1.30;;;0.95;;
12024;SDS011;6073;53.230;10.444;2023-04-03T11:47:58;1.25;;;1.00;;
12024;SDS011;6073;53.230;10.444;2023-04-03T11:50:46;3.20;;;1.17;;
12024;SDS011;6073;53.230;10.444;2023-04-03T11:58:13;3.17;;;1.38;;
12024;SDS011;6073;53.230;10.444;2023-04-03T12:08:24;4.05;;;1.40;;
12024;SDS011;6073;53.230;10.444;2023-04-03T12:18:56;2.80;;;1.38;;
12024;SDS011;6073;53.230;10.444;2023-04-03T12:37:43;2.05;;;1.17;;
12024;SDS011;6073;53.230;10.444;2023-04-03T12:46:18;2.58;;;1.23;;
12024;SDS011;6073;53.230;10.444;2023-04-03T12:51:27;1.80;;;1.08;;
12024;SDS011;6073;53.230;10.444;2023-04-03T12:54:03;3.53;;;1.50;;
12024;SDS011;6073;53.230;10.444;2023-04-03T12:56:38;4.10;;;1.30;;
12024;SDS011;6073;53.230;10.444;2023-04-03T12:59:23;3.47;;;1.33;;
12024;SDS011;6073;53.230;10.444;2023-04-03T13:01:56;2.60;;;1.27;;
12024;SDS011;6073;53.230;10.444;2023-04-03T13:04:24;2.65;;;1.40;;
12024;SDS011;6073;53.230;10.444;2023-04-03T13:06:51;4.88;;;1.52;;
12024;SDS011;6073;53.230;10.444;2023-04-03T13:09:24;3.03;;;1.38;;
12024;SDS011;6073;53.230;10.444;2023-04-03T13:11:55;2.30;;;1.02;;
12024;SDS011;6073;53.230;10.444;2023-04-03T13:14:28;1.45;;;1.30;;
12024;SDS011;6073;53.230;10.444;2023-04-03T13:19:35;3.65;;;1.63;;
12024;SDS011;6073;53.230;10.444;2023-04-03T13:22:02;4.45;;;1.63;;
12024;SDS011;6073;53.230;10.444;2023-04-03T13:24:40;1.63;;;0.90;;
12024;SDS011;6073;53.230;10.444;2023-04-03T13:27:15;2.53;;;1.35;;
12024;SDS011;6073;53.230;10.444;2023-04-03T13:29:41;2.47;;;1.23;;
12024;SDS011;6073;53.230;10.444;2023-04-03T13:32:13;3.67;;;1.48;;
12024;SDS011;6073;53.230;10.444;2023-04-03T13:34:47;1.63;;;1.10;;
12024;SDS011;6073;53.230;10.444;2023-04-03T13:37:27;2.63;;;1.30;;
12024;SDS011;6073;53.230;10.444;2023-04-03T13:39:58;2.28;;;1.13;;
12024;SDS011;6073;53.230;10.444;2023-04-03T13:42:34;1.38;;;1.13;;
12024;SDS011;6073;53.230;10.444;2023-04-03T13:47:44;1.75;;;1.30;;
12024;SDS011;6073;53.230;10.444;2023-04-03T13:52:44;2.03;;;1.27;;
12024;SDS011;6073;53.230;10.444;2023-04-03T14:00:38;1.77;;;1.17;;
12024;SDS011;6073;53.230;10.444;2023-04-03T14:03:20;3.13;;;1.23;;
12024;SDS011;6073;53.230;10.444;2023-04-03T14:05:51;1.27;;;0.85;;
12024;SDS011;6073;53.230;10.444;2023-04-03T14:08:17;2.83;;;1.08;;
12024;SDS011;6073;53.230;10.444;2023-04-03T14:10:44;2.15;;;1.13;;
12024;SDS011;6073;53.230;10.444;2023-04-03T14:13:13;2.47;;;1.20;;
12024;SDS011;6073;53.230;10.444;2023-04-03T14:15:40;2.15;;;1.05;;
12024;SDS011;6073;53.230;10.444;2023-04-03T14:18:06;2.42;;;1.35;;
12024;SDS011;6073;53.230;10.444;2023-04-03T14:20:31;2.15;;;1.10;;
12024;SDS011;6073;53.230;10.444;2023-04-03T14:22:57;1.20;;;1.02;;
12024;SDS011;6073;53.230;10.444;2023-04-03T14:25:23;3.08;;;1.20;;
12024;SDS011;6073;53.230;10.444;2023-04-03T14:27:51;1.55;;;0.85;;
12024;SDS011;6073;53.230;10.444;2023-04-03T14:32:50;1.38;;;0.88;;
12024;SDS011;6073;53.230;10.444;2023-04-03T14:35:17;2.53;;;1.13;;
12024;SDS011;6073;53.230;10.444;2023-04-03T14:37:43;1.45;;;1.10;;
12024;SDS011;6073;53.230;10.444;2023-04-03T14:40:13;3.35;;;1.17;;
12024;SDS011;6073;53.230;10.444;2023-04-03T14:42:41;2.25;;;0.90;;
12024;SDS011;6073;53.230;10.444;2023-04-03T14:45:08;2.90;;;1.23;;
12024;SDS011;6073;53.230;10.444;2023-04-03T14:47:37;3.03;;;1.30;;
12024;SDS011;6073;53.230;10.444;2023-04-03T14:50:15;5.13;;;1.27;;
12024;SDS011;6073;53.230;10.444;2023-04-03T14:52:46;1.20;;;1.10;;
12024;SDS011;6073;53.230;10.444;2023-04-03T14:55:14;1.45;;;1.08;;
12024;SDS011;6073;53.230;10.444;2023-04-03T14:57:41;2.22;;;0.93;;
12024;SDS011;6073;53.230;10.444;2023-04-03T15:00:10;1.63;;;1.17;;
12024;SDS011;6073;53.230;10.444;2023-04-03T15:02:39;5.32;;;1.30;;
12024;SDS011;6073;53.230;10.444;2023-04-03T15:05:05;2.63;;;1.33;;
12024;SDS011;6073;53.230;10.444;2023-04-03T15:07:34;2.00;;;0.98;;
12024;SDS011;6073;53.230;10.444;2023-04-03T15:12:40;3.17;;;1.00;;
12024;SDS011;6073;53.230;10.444;2023-04-03T15:15:05;3.67;;;1.27;;
12024;SDS011;6073;53.230;10.444;2023-04-03T15:17:31;1.40;;;1.00;;
12024;SDS011;6073;53.230;10.444;2023-04-03T15:19:58;0.80;;;0.80;;
12024;SDS011;6073;53.230;10.444;2023-04-03T15:22:24;2.05;;;0.88;;
12024;SDS011;6073;53.230;10.444;2023-04-03T15:24:50;1.73;;;1.20;;
12024;SDS011;6073;53.230;10.444;2023-04-03T15:27:15;1.35;;;0.93;;
12024;SDS011;6073;53.230;10.444;2023-04-03T15:29:42;3.00;;;1.15;;
12024;SDS011;6073;53.230;10.444;2023-04-03T15:32:08;2.38;;;0.88;;
12024;SDS011;6073;53.230;10.444;2023-04-03T15:34:35;2.65;;;1.10;;
12024;SDS011;6073;53.230;10.444;2023-04-03T15:37:01;1.10;;;0.93;;
12024;SDS011;6073;53.230;10.444;2023-04-03T15:39:27;0.80;;;0.80;;
12024;SDS011;6073;53.230;10.444;2023-04-03T15:41:53;1.55;;;1.00;;
12024;SDS011;6073;53.230;10.444;2023-04-03T15:44:21;1.50;;;1.05;;
12024;SDS011;6073;53.230;10.444;2023-04-03T15:46:47;0.88;;;0.80;;
12024;SDS011;6073;53.230;10.444;2023-04-03T15:49:16;2.90;;;0.90;;
12024;SDS011;6073;53.230;10.444;2023-04-03T15:51:42;2.63;;;1.27;;
12024;SDS011;6073;53.230;10.444;2023-04-03T15:54:08;0.93;;;0.85;;
12024;SDS011;6073;53.230;10.444;2023-04-03T15:56:33;1.55;;;1.00;;
12024;SDS011;6073;53.230;10.444;2023-04-03T15:58:59;3.47;;;1.27;;
12024;SDS011;6073;53.230;10.444;2023-04-03T16:01:24;3.95;;;1.52;;
12024;SDS011;6073;53.230;10.444;2023-04-03T16:03:50;1.85;;;1.08;;
12024;SDS011;6073;53.230;10.444;2023-04-03T16:06:16;2.28;;;1.02;;
12024;SDS011;6073;53.230;10.444;2023-04-03T16:08:46;2.42;;;1.27;;
12024;SDS011;6073;53.230;10.444;2023-04-03T16:11:13;3.70;;;1.48;;
12024;SDS011;6073;53.230;10.444;2023-04-03T16:13:39;2.55;;;1.25;;
12024;SDS011;6073;53.230;10.444;2023-04-03T16:16:05;3.65;;;1.20;;
12024;SDS011;6073;53.230;10.444;2023-04-03T16:18:31;3.40;;;1.17;;
12024;SDS011;6073;53.230;10.444;2023-04-03T16:20:58;2.05;;;1.35;;
12024;SDS011;6073;53.230;10.444;2023-04-03T16:23:24;1.58;;;0.95;;
12024;SDS011;6073;53.230;10.444;2023-04-03T16:25:50;2.38;;;1.25;;
12024;SDS011;6073;53.230;10.444;2023-04-03T16:28:15;2.42;;;1.00;;
12024;SDS011;6073;53.230;10.444;2023-04-03T16:30:42;1.40;;;1.05;;
12024;SDS011;6073;53.230;10.444;2023-04-03T16:33:10;2.22;;;1.40;;
12024;SDS011;6073;53.230;10.444;2023-04-03T16:35:37;2.65;;;1.35;;
12024;SDS011;6073;53.230;10.444;2023-04-03T16:38:03;2.75;;;1.70;;
12024;SDS011;6073;53.230;10.444;2023-04-03T16:40:29;1.52;;;1.10;;
12024;SDS011;6073;53.230;10.444;2023-04-03T16:42:54;2.05;;;1.35;;
12024;SDS011;6073;53.230;10.444;2023-04-03T16:45:20;3.60;;;1.20;;
12024;SDS011;6073;53.230;10.444;2023-04-03T16:47:46;2.97;;;1.48;;
12024;SDS011;6073;53.230;10.444;2023-04-03T16:50:11;1.95;;;1.05;;
12024;SDS011;6073;53.230;10.444;2023-04-03T16:52:37;2.88;;;1.38;;